Raccoon Key, Florida
Current Conditions -  °F | °C
As of 6:53 PM on Saturday 20 Dec 2014 (Local Time) from KNQX Reporting Station
Broken Clouds Broken Clouds  
Wind Chill: 74°   Ceiling: 11000
Heat Index: 74°   Visibility: 10mi
Dew Point: 67°   Wind: 5mph
Humidity: 79%   Direction: 110°ESE
Pressure: 30.04"   Gusts: NA
Location:  24.5796°N, 81.6849°W
Report Text: KNQX 202353Z 11004KT 10SM FEW080 BKN110 23/19 A3004 RMK AO2 SLP171 T02330194 10272 20233 52012
Loading
Personal Weather Stations






























Interactive Weather Map New forecast layout! Learn more

10-Day Weather Forecast

Advertisements
Track Severe Weather on mobile